sensor_id;sensor_type;location;lat;lon;timestamp;pressure;altitude;pressure_sealevel;temperature;humidity
163;BME280;3946;48.958;8.284;2024-03-08T00:01:59;100400.16;;;5.40;100.00
163;BME280;3946;48.958;8.284;2024-03-08T00:04:46;100391.88;;;5.34;100.00
163;BME280;3946;48.958;8.284;2024-03-08T00:07:31;100383.50;;;5.28;100.00
163;BME280;3946;48.958;8.284;2024-03-08T00:10:17;100390.56;;;5.23;100.00
163;BME280;3946;48.958;8.284;2024-03-08T00:13:04;100387.94;;;5.25;100.00
163;BME280;3946;48.958;8.284;2024-03-08T00:15:50;100383.75;;;5.22;100.00
163;BME280;3946;48.958;8.284;2024-03-08T00:18:35;100381.19;;;5.22;100.00
163;BME280;3946;48.958;8.284;2024-03-08T00:21:22;100378.13;;;5.14;100.00
163;BME280;3946;48.958;8.284;2024-03-08T00:24:08;100380.94;;;5.08;100.00
163;BME280;3946;48.958;8.284;2024-03-08T00:26:53;100379.13;;;5.10;100.00
163;BME280;3946;48.958;8.284;2024-03-08T00:29:38;100373.28;;;5.07;100.00
163;BME280;3946;48.958;8.284;2024-03-08T00:32:24;100370.84;;;5.04;100.00
163;BME280;3946;48.958;8.284;2024-03-08T00:35:09;100368.41;;;5.01;100.00
163;BME280;3946;48.958;8.284;2024-03-08T00:37:57;100368.47;;;4.99;100.00
163;BME280;3946;48.958;8.284;2024-03-08T00:40:42;100366.09;;;4.95;100.00
163;BME280;3946;48.958;8.284;2024-03-08T00:43:28;100362.91;;;4.88;100.00
163;BME280;3946;48.958;8.284;2024-03-08T00:46:14;100363.84;;;4.87;100.00
163;BME280;3946;48.958;8.284;2024-03-08T00:49:00;100368.78;;;4.91;100.00
163;BME280;3946;48.958;8.284;2024-03-08T00:51:46;100361.13;;;4.90;100.00
163;BME280;3946;48.958;8.284;2024-03-08T00:54:36;100370.69;;;4.86;100.00
163;BME280;3946;48.958;8.284;2024-03-08T00:57:23;100365.69;;;4.83;100.00
163;BME280;3946;48.958;8.284;2024-03-08T01:00:09;100355.53;;;4.80;100.00
163;BME280;3946;48.958;8.284;2024-03-08T01:02:55;100360.72;;;4.79;100.00
163;BME280;3946;48.958;8.284;2024-03-08T01:05:41;100352.38;;;4.74;100.00
163;BME280;3946;48.958;8.284;2024-03-08T01:08:26;100331.38;;;4.64;100.00
163;BME280;3946;48.958;8.284;2024-03-08T01:11:14;100338.13;;;4.67;100.00
163;BME280;3946;48.958;8.284;2024-03-08T01:13:59;100340.56;;;4.70;100.00
163;BME280;3946;48.958;8.284;2024-03-08T01:16:45;100331.03;;;4.51;100.00
163;BME280;3946;48.958;8.284;2024-03-08T01:19:30;100333.34;;;4.57;100.00
163;BME280;3946;48.958;8.284;2024-03-08T01:22:17;100331.81;;;4.53;100.00
163;BME280;3946;48.958;8.284;2024-03-08T01:25:02;100314.75;;;4.52;100.00
163;BME280;3946;48.958;8.284;2024-03-08T01:27:49;100324.94;;;4.54;100.00
163;BME280;3946;48.958;8.284;2024-03-08T01:30:35;100322.38;;;4.54;100.00
163;BME280;3946;48.958;8.284;2024-03-08T01:33:22;100313.91;;;4.52;100.00
163;BME280;3946;48.958;8.284;2024-03-08T01:36:07;100307.00;;;4.54;100.00
163;BME280;3946;48.958;8.284;2024-03-08T01:38:52;100307.09;;;4.51;100.00
163;BME280;3946;48.958;8.284;2024-03-08T01:41:38;100307.34;;;4.45;100.00
163;BME280;3946;48.958;8.284;2024-03-08T01:44:25;100309.84;;;4.46;100.00
163;BME280;3946;48.958;8.284;2024-03-08T01:47:11;100309.66;;;4.29;100.00
163;BME280;3946;48.958;8.284;2024-03-08T01:49:57;100302.28;;;4.21;100.00
163;BME280;3946;48.958;8.284;2024-03-08T01:52:42;100302.28;;;4.21;100.00
163;BME280;3946;48.958;8.284;2024-03-08T01:55:27;100291.31;;;4.18;100.00
163;BME280;3946;48.958;8.284;2024-03-08T01:58:12;100278.28;;;4.01;100.00
163;BME280;3946;48.958;8.284;2024-03-08T02:01:01;100263.38;;;3.89;100.00
163;BME280;3946;48.958;8.284;2024-03-08T02:03:49;100275.94;;;3.95;100.00
163;BME280;3946;48.958;8.284;2024-03-08T02:06:35;100269.09;;;3.95;100.00
163;BME280;3946;48.958;8.284;2024-03-08T02:09:22;100240.13;;;3.71;100.00
163;BME280;3946;48.958;8.284;2024-03-08T02:12:08;100255.69;;;3.89;100.00
163;BME280;3946;48.958;8.284;2024-03-08T02:14:56;100236.72;;;3.71;100.00
163;BME280;3946;48.958;8.284;2024-03-08T02:17:43;100258.84;;;3.73;100.00
163;BME280;3946;48.958;8.284;2024-03-08T02:20:30;100263.88;;;3.75;100.00
163;BME280;3946;48.958;8.284;2024-03-08T02:23:15;100264.91;;;3.71;100.00
163;BME280;3946;48.958;8.284;2024-03-08T02:26:01;100263.75;;;3.56;100.00
163;BME280;3946;48.958;8.284;2024-03-08T02:28:49;100264.38;;;3.61;100.00
163;BME280;3946;48.958;8.284;2024-03-08T02:31:34;100245.09;;;3.53;100.00
163;BME280;3946;48.958;8.284;2024-03-08T02:34:20;100248.97;;;3.63;100.00
163;BME280;3946;48.958;8.284;2024-03-08T02:37:07;100244.56;;;3.66;100.00
163;BME280;3946;48.958;8.284;2024-03-08T02:39:52;100237.78;;;3.65;100.00
163;BME280;3946;48.958;8.284;2024-03-08T02:42:38;100236.06;;;3.66;100.00
163;BME280;3946;48.958;8.284;2024-03-08T02:45:23;100240.34;;;3.65;100.00
163;BME280;3946;48.958;8.284;2024-03-08T02:48:08;100236.16;;;3.63;100.00
163;BME280;3946;48.958;8.284;2024-03-08T02:50:54;100242.16;;;3.62;100.00
163;BME280;3946;48.958;8.284;2024-03-08T02:53:40;100237.28;;;3.56;100.00
163;BME280;3946;48.958;8.284;2024-03-08T02:56:27;100228.84;;;3.54;100.00
163;BME280;3946;48.958;8.284;2024-03-08T02:59:12;100210.44;;;3.42;100.00
163;BME280;3946;48.958;8.284;2024-03-08T03:01:57;100228.88;;;3.52;100.00
163;BME280;3946;48.958;8.284;2024-03-08T03:04:43;100231.56;;;3.49;100.00
163;BME280;3946;48.958;8.284;2024-03-08T03:07:28;100228.09;;;3.50;100.00
163;BME280;3946;48.958;8.284;2024-03-08T03:10:16;100222.03;;;3.53;100.00
163;BME280;3946;48.958;8.284;2024-03-08T03:13:02;100219.47;;;3.53;100.00
163;BME280;3946;48.958;8.284;2024-03-08T03:15:48;100216.19;;;3.49;100.00
163;BME280;3946;48.958;8.284;2024-03-08T03:18:34;100207.81;;;3.44;100.00
163;BME280;3946;48.958;8.284;2024-03-08T03:21:20;100212.06;;;3.45;100.00
163;BME280;3946;48.958;8.284;2024-03-08T03:24:06;100207.13;;;3.40;100.00
163;BME280;3946;48.958;8.284;2024-03-08T03:26:55;100210.53;;;3.41;100.00
163;BME280;3946;48.958;8.284;2024-03-08T03:29:41;100193.75;;;3.32;100.00
163;BME280;3946;48.958;8.284;2024-03-08T03:32:29;100200.66;;;3.30;100.00
163;BME280;3946;48.958;8.284;2024-03-08T03:35:15;100200.66;;;3.30;100.00
163;BME280;3946;48.958;8.284;2024-03-08T03:38:00;100201.66;;;3.26;100.00
163;BME280;3946;48.958;8.284;2024-03-08T03:40:50;100198.16;;;3.29;100.00
163;BME280;3946;48.958;8.284;2024-03-08T03:43:37;100200.22;;;3.19;100.00
163;BME280;3946;48.958;8.284;2024-03-08T03:46:23;100194.81;;;3.03;100.00
163;BME280;3946;48.958;8.284;2024-03-08T03:49:10;100188.91;;;3.01;100.00
163;BME280;3946;48.958;8.284;2024-03-08T03:51:56;100185.50;;;3.01;100.00
163;BME280;3946;48.958;8.284;2024-03-08T03:54:42;100186.97;;;3.08;100.00
163;BME280;3946;48.958;8.284;2024-03-08T03:57:27;100185.84;;;2.92;100.00
163;BME280;3946;48.958;8.284;2024-03-08T04:00:15;100179.00;;;2.92;100.00
163;BME280;3946;48.958;8.284;2024-03-08T04:03:00;100185.75;;;2.93;100.00
163;BME280;3946;48.958;8.284;2024-03-08T04:05:46;100173.41;;;2.81;100.00
163;BME280;3946;48.958;8.284;2024-03-08T04:08:31;100190.34;;;2.85;100.00
163;BME280;3946;48.958;8.284;2024-03-08T04:11:17;100189.75;;;2.77;100.00
163;BME280;3946;48.958;8.284;2024-03-08T04:14:03;100198.06;;;2.84;100.00
163;BME280;3946;48.958;8.284;2024-03-08T04:16:50;100184.75;;;2.74;100.00
163;BME280;3946;48.958;8.284;2024-03-08T04:19:38;100181.66;;;2.64;100.00
163;BME280;3946;48.958;8.284;2024-03-08T04:22:23;100185.53;;;2.76;100.00
163;BME280;3946;48.958;8.284;2024-03-08T04:25:09;100156.97;;;2.63;100.00
163;BME280;3946;48.958;8.284;2024-03-08T04:27:54;100171.28;;;2.69;100.00
163;BME280;3946;48.958;8.284;2024-03-08T04:30:39;100161.00;;;2.70;100.00
163;BME280;3946;48.958;8.284;2024-03-08T04:33:26;100163.41;;;2.75;100.00
163;BME280;3946;48.958;8.284;2024-03-08T04:36:11;100155.66;;;2.76;100.00
163;BME280;3946;48.958;8.284;2024-03-08T04:38:57;100160.72;;;2.78;100.00
163;BME280;3946;48.958;8.284;2024-03-08T04:41:43;100147.97;;;2.76;100.00
163;BME280;3946;48.958;8.284;2024-03-08T04:44:29;100139.72;;;2.70;100.00
163;BME280;3946;48.958;8.284;2024-03-08T04:47:14;100136.25;;;2.71;100.00
163;BME280;3946;48.958;8.284;2024-03-08T04:50:03;100150.63;;;2.75;100.00
163;BME280;3946;48.958;8.284;2024-03-08T04:52:49;100147.19;;;2.76;100.00
163;BME280;3946;48.958;8.284;2024-03-08T04:55:34;100143.84;;;2.74;100.00
163;BME280;3946;48.958;8.284;2024-03-08T04:58:21;100137.03;;;2.73;100.00
163;BME280;3946;48.958;8.284;2024-03-08T05:01:06;100139.66;;;2.71;100.00
163;BME280;3946;48.958;8.284;2024-03-08T05:03:54;100148.13;;;2.73;100.00
163;BME280;3946;48.958;8.284;2024-03-08T05:06:41;100146.53;;;2.69;100.00
163;BME280;3946;48.958;8.284;2024-03-08T05:09:26;100136.00;;;2.54;100.00
163;BME280;3946;48.958;8.284;2024-03-08T05:12:13;100143.31;;;2.64;100.00
163;BME280;3946;48.958;8.284;2024-03-08T05:14:58;100143.47;;;2.60;100.00
163;BME280;3946;48.958;8.284;2024-03-08T05:17:44;100150.50;;;2.53;100.00
163;BME280;3946;48.958;8.284;2024-03-08T05:20:29;100143.03;;;2.47;100.00
163;BME280;3946;48.958;8.284;2024-03-08T05:23:16;100138.38;;;2.60;100.00
163;BME280;3946;48.958;8.284;2024-03-08T05:26:03;100134.97;;;2.59;100.00
163;BME280;3946;48.958;8.284;2024-03-08T05:28:48;100127.34;;;2.58;100.00
163;BME280;3946;48.958;8.284;2024-03-08T05:31:38;100132.41;;;2.59;100.00
163;BME280;3946;48.958;8.284;2024-03-08T05:34:28;100122.91;;;2.63;100.00
163;BME280;3946;48.958;8.284;2024-03-08T05:37:14;100127.06;;;2.65;100.00
163;BME280;3946;48.958;8.284;2024-03-08T05:40:01;100133.06;;;2.64;100.00
163;BME280;3946;48.958;8.284;2024-03-08T05:42:47;100118.78;;;2.59;100.00
163;BME280;3946;48.958;8.284;2024-03-08T05:45:32;100122.00;;;2.64;100.00
163;BME280;3946;48.958;8.284;2024-03-08T05:48:18;100126.03;;;2.71;100.00
163;BME280;3946;48.958;8.284;2024-03-08T05:51:04;100129.63;;;2.65;100.00
163;BME280;3946;48.958;8.284;2024-03-08T05:53:50;100129.63;;;2.65;100.00
163;BME280;3946;48.958;8.284;2024-03-08T05:56:39;100129.28;;;2.76;100.00
163;BME280;3946;48.958;8.284;2024-03-08T05:59:26;100130.22;;;2.73;100.00
163;BME280;3946;48.958;8.284;2024-03-08T06:02:11;100123.53;;;2.69;100.00
163;BME280;3946;48.958;8.284;2024-03-08T06:05:00;100117.53;;;2.70;100.00
163;BME280;3946;48.958;8.284;2024-03-08T06:07:46;100115.84;;;2.69;100.00
163;BME280;3946;48.958;8.284;2024-03-08T06:10:31;100118.25;;;2.74;100.00
163;BME280;3946;48.958;8.284;2024-03-08T06:13:18;100116.53;;;2.74;100.00
163;BME280;3946;48.958;8.284;2024-03-08T06:16:04;100117.53;;;2.70;100.00
163;BME280;3946;48.958;8.284;2024-03-08T06:18:51;100104.78;;;2.69;100.00
163;BME280;3946;48.958;8.284;2024-03-08T06:21:37;100114.81;;;2.75;100.00
163;BME280;3946;48.958;8.284;2024-03-08T06:24:22;100121.59;;;2.76;100.00
163;BME280;3946;48.958;8.284;2024-03-08T06:27:08;100119.84;;;2.76;100.00
163;BME280;3946;48.958;8.284;2024-03-08T06:29:55;100117.88;;;2.85;100.00
163;BME280;3946;48.958;8.284;2024-03-08T06:32:40;100114.63;;;2.79;100.00
163;BME280;3946;48.958;8.284;2024-03-08T06:35:26;100108.56;;;2.82;100.00
163;BME280;3946;48.958;8.284;2024-03-08T06:38:12;100116.03;;;2.88;100.00
163;BME280;3946;48.958;8.284;2024-03-08T06:41:01;100113.44;;;2.90;100.00
163;BME280;3946;48.958;8.284;2024-03-08T06:43:48;100112.34;;;2.95;100.00
163;BME280;3946;48.958;8.284;2024-03-08T06:46:37;100112.09;;;3.03;100.00
163;BME280;3946;48.958;8.284;2024-03-08T06:49:23;100115.22;;;3.09;100.00
163;BME280;3946;48.958;8.284;2024-03-08T06:52:08;100106.50;;;3.15;100.00
163;BME280;3946;48.958;8.284;2024-03-08T06:54:53;100106.34;;;3.20;100.00
163;BME280;3946;48.958;8.284;2024-03-08T06:57:39;100096.78;;;3.25;100.00
163;BME280;3946;48.958;8.284;2024-03-08T07:00:24;100104.31;;;3.28;100.00
163;BME280;3946;48.958;8.284;2024-03-08T07:03:14;100105.53;;;3.41;100.00
163;BME280;3946;48.958;8.284;2024-03-08T07:06:01;100085.84;;;3.41;100.00
163;BME280;3946;48.958;8.284;2024-03-08T07:08:46;100099.09;;;3.53;100.00
163;BME280;3946;48.958;8.284;2024-03-08T07:11:32;100064.69;;;3.38;100.00
163;BME280;3946;48.958;8.284;2024-03-08T07:14:18;100093.44;;;3.66;100.00
163;BME280;3946;48.958;8.284;2024-03-08T07:17:06;100093.06;;;3.75;100.00
163;BME280;3946;48.958;8.284;2024-03-08T07:19:54;100086.34;;;3.73;100.00
163;BME280;3946;48.958;8.284;2024-03-08T07:22:39;100084.31;;;3.81;100.00
163;BME280;3946;48.958;8.284;2024-03-08T07:25:25;100080.97;;;3.79;100.00
163;BME280;3946;48.958;8.284;2024-03-08T07:28:13;100079.38;;;3.97;100.00
163;BME280;3946;48.958;8.284;2024-03-08T07:30:58;100086.91;;;4.01;100.00
163;BME280;3946;48.958;8.284;2024-03-08T07:34:01;100094.06;;;4.13;100.00
163;BME280;3946;48.958;8.284;2024-03-08T07:36:48;100089.59;;;4.18;100.00
163;BME280;3946;48.958;8.284;2024-03-08T07:39:34;100086.97;;;4.20;100.00
163;BME280;3946;48.958;8.284;2024-03-08T07:42:20;100075.00;;;4.20;100.00
163;BME280;3946;48.958;8.284;2024-03-08T07:45:07;100080.78;;;4.24;100.00
163;BME280;3946;48.958;8.284;2024-03-08T07:47:52;100092.53;;;4.30;100.00
163;BME280;3946;48.958;8.284;2024-03-08T07:50:38;100079.94;;;4.44;100.00
163;BME280;3946;48.958;8.284;2024-03-08T07:53:25;100072.19;;;4.45;100.00
163;BME280;3946;48.958;8.284;2024-03-08T07:56:10;100071.66;;;4.57;100.00
163;BME280;3946;48.958;8.284;2024-03-08T07:58:57;100066.00;;;4.70;99.52
163;BME280;3946;48.958;8.284;2024-03-08T08:01:42;100060.03;;;4.69;98.76
163;BME280;3946;48.958;8.284;2024-03-08T08:04:28;100058.97;;;4.73;98.50
163;BME280;3946;48.958;8.284;2024-03-08T08:07:13;100054.06;;;4.87;98.17
163;BME280;3946;48.958;8.284;2024-03-08T08:10:00;100051.22;;;4.93;97.11
163;BME280;3946;48.958;8.284;2024-03-08T08:12:45;100048.59;;;5.14;97.26
163;BME280;3946;48.958;8.284;2024-03-08T08:15:31;100047.56;;;5.18;96.33
163;BME280;3946;48.958;8.284;2024-03-08T08:18:17;100054.69;;;5.30;95.19
163;BME280;3946;48.958;8.284;2024-03-08T08:21:05;100046.41;;;5.23;94.62
163;BME280;3946;48.958;8.284;2024-03-08T08:23:50;100014.84;;;5.21;94.69
163;BME280;3946;48.958;8.284;2024-03-08T08:26:37;100043.13;;;5.39;93.91
163;BME280;3946;48.958;8.284;2024-03-08T08:29:23;100035.66;;;5.34;93.14
163;BME280;3946;48.958;8.284;2024-03-08T08:32:09;100041.66;;;5.52;93.53
163;BME280;3946;48.958;8.284;2024-03-08T08:34:55;100038.72;;;5.59;93.19
163;BME280;3946;48.958;8.284;2024-03-08T08:37:40;100035.09;;;5.63;92.78
163;BME280;3946;48.958;8.284;2024-03-08T08:40:25;100027.06;;;5.87;92.56
163;BME280;3946;48.958;8.284;2024-03-08T08:43:12;100024.69;;;5.84;91.96
163;BME280;3946;48.958;8.284;2024-03-08T08:45:57;100029.22;;;5.96;91.11
163;BME280;3946;48.958;8.284;2024-03-08T08:48:43;100014.22;;;6.04;90.18
163;BME280;3946;48.958;8.284;2024-03-08T08:51:29;100024.38;;;6.07;90.36
163;BME280;3946;48.958;8.284;2024-03-08T08:54:14;100021.09;;;6.21;90.64
163;BME280;3946;48.958;8.284;2024-03-08T08:57:01;100022.09;;;6.18;90.15
163;BME280;3946;48.958;8.284;2024-03-08T08:59:52;100011.91;;;6.17;89.57
163;BME280;3946;48.958;8.284;2024-03-08T09:02:39;100009.91;;;6.22;89.69
163;BME280;3946;48.958;8.284;2024-03-08T09:05:25;100011.09;;;6.32;89.38
163;BME280;3946;48.958;8.284;2024-03-08T09:08:10;100018.00;;;6.31;88.97
163;BME280;3946;48.958;8.284;2024-03-08T09:10:56;100015.72;;;6.25;88.58
163;BME280;3946;48.958;8.284;2024-03-08T09:13:44;100008.22;;;6.54;89.07
163;BME280;3946;48.958;8.284;2024-03-08T09:16:31;99998.53;;;6.59;87.12
163;BME280;3946;48.958;8.284;2024-03-08T09:19:16;99995.50;;;6.51;87.82
163;BME280;3946;48.958;8.284;2024-03-08T09:22:03;99990.16;;;6.71;87.77
163;BME280;3946;48.958;8.284;2024-03-08T09:24:49;99997.22;;;6.83;86.62
163;BME280;3946;48.958;8.284;2024-03-08T09:27:34;99977.88;;;6.76;86.88
163;BME280;3946;48.958;8.284;2024-03-08T09:30:20;99992.06;;;6.99;87.16
163;BME280;3946;48.958;8.284;2024-03-08T09:33:06;99979.63;;;6.91;85.64
163;BME280;3946;48.958;8.284;2024-03-08T09:35:53;99991.22;;;6.67;86.16
163;BME280;3946;48.958;8.284;2024-03-08T09:38:39;99984.34;;;6.83;86.68
163;BME280;3946;48.958;8.284;2024-03-08T09:41:24;99975.22;;;6.93;85.47
163;BME280;3946;48.958;8.284;2024-03-08T09:44:10;99976.97;;;6.93;85.26
163;BME280;3946;48.958;8.284;2024-03-08T09:46:55;99973.09;;;7.00;85.75
163;BME280;3946;48.958;8.284;2024-03-08T09:49:44;99968.31;;;6.78;85.97
163;BME280;3946;48.958;8.284;2024-03-08T09:52:30;99970.47;;;6.86;86.32
163;BME280;3946;48.958;8.284;2024-03-08T09:55:16;99968.81;;;6.85;86.25
163;BME280;3946;48.958;8.284;2024-03-08T09:58:06;99953.50;;;7.13;85.40
163;BME280;3946;48.958;8.284;2024-03-08T10:01:20;99960.97;;;7.18;84.72
163;BME280;3946;48.958;8.284;2024-03-08T10:04:06;99948.63;;;7.38;84.43
163;BME280;3946;48.958;8.284;2024-03-08T10:06:55;99947.88;;;7.36;83.94
163;BME280;3946;48.958;8.284;2024-03-08T10:09:41;99940.06;;;7.38;82.81
163;BME280;3946;48.958;8.284;2024-03-08T10:12:31;99935.38;;;7.15;84.18
163;BME280;3946;48.958;8.284;2024-03-08T10:15:16;99927.84;;;7.12;84.89
163;BME280;3946;48.958;8.284;2024-03-08T10:18:02;99940.31;;;7.33;84.34
163;BME280;3946;48.958;8.284;2024-03-08T10:21:01;99938.84;;;7.29;83.64
163;BME280;3946;48.958;8.284;2024-03-08T10:23:49;99937.88;;;7.46;84.18
163;BME280;3946;48.958;8.284;2024-03-08T10:26:36;99935.44;;;7.29;83.27
163;BME280;3946;48.958;8.284;2024-03-08T10:29:21;99935.34;;;7.30;83.70
163;BME280;3946;48.958;8.284;2024-03-08T10:32:08;99932.63;;;7.18;83.22
163;BME280;3946;48.958;8.284;2024-03-08T10:34:53;99926.31;;;7.23;83.94
163;BME280;3946;48.958;8.284;2024-03-08T10:37:44;99921.97;;;7.24;83.32
163;BME280;3946;48.958;8.284;2024-03-08T10:40:31;99922.75;;;7.40;83.25
163;BME280;3946;48.958;8.284;2024-03-08T10:43:22;99915.78;;;7.42;82.61
163;BME280;3946;48.958;8.284;2024-03-08T10:46:21;99923.75;;;7.37;82.86
163;BME280;3946;48.958;8.284;2024-03-08T10:49:16;99905.16;;;7.32;83.24
163;BME280;3946;48.958;8.284;2024-03-08T10:52:03;99921.38;;;7.49;82.42
163;BME280;3946;48.958;8.284;2024-03-08T10:54:50;99923.19;;;7.62;82.85
163;BME280;3946;48.958;8.284;2024-03-08T10:57:40;99919.38;;;7.54;83.13
163;BME280;3946;48.958;8.284;2024-03-08T11:00:26;99921.06;;;7.69;82.57
163;BME280;3946;48.958;8.284;2024-03-08T11:03:44;99898.78;;;7.68;81.90
163;BME280;3946;48.958;8.284;2024-03-08T11:06:41;99905.78;;;7.80;81.72
163;BME280;3946;48.958;8.284;2024-03-08T11:09:29;99895.28;;;7.69;81.09
163;BME280;3946;48.958;8.284;2024-03-08T11:12:22;99904.09;;;7.65;80.85
163;BME280;3946;48.958;8.284;2024-03-08T11:15:12;99889.03;;;7.73;81.42
163;BME280;3946;48.958;8.284;2024-03-08T11:17:58;99902.00;;;7.86;80.98
163;BME280;3946;48.958;8.284;2024-03-08T11:20:44;99905.34;;;7.88;80.58
163;BME280;3946;48.958;8.284;2024-03-08T11:23:33;99897.59;;;8.02;79.70
163;BME280;3946;48.958;8.284;2024-03-08T11:26:18;99907.25;;;8.13;79.63
163;BME280;3946;48.958;8.284;2024-03-08T11:29:35;99896.31;;;7.95;79.35
163;BME280;3946;48.958;8.284;2024-03-08T11:32:27;99897.16;;;8.10;79.84
163;BME280;3946;48.958;8.284;2024-03-08T11:35:18;99880.84;;;8.09;79.95
163;BME280;3946;48.958;8.284;2024-03-08T11:38:03;99886.09;;;8.07;78.13
163;BME280;3946;48.958;8.284;2024-03-08T11:40:50;99878.59;;;8.17;79.01
163;BME280;3946;48.958;8.284;2024-03-08T11:43:36;99880.84;;;8.09;78.53
163;BME280;3946;48.958;8.284;2024-03-08T11:46:24;99855.97;;;7.94;78.67
163;BME280;3946;48.958;8.284;2024-03-08T11:49:13;99864.53;;;7.80;78.96
163;BME280;3946;48.958;8.284;2024-03-08T11:51:59;99865.50;;;8.20;78.97
163;BME280;3946;48.958;8.284;2024-03-08T11:54:52;99849.28;;;8.18;78.63
163;BME280;3946;48.958;8.284;2024-03-08T11:57:39;99849.59;;;7.99;78.64
163;BME280;3946;48.958;8.284;2024-03-08T12:00:26;99861.56;;;8.00;79.17
163;BME280;3946;48.958;8.284;2024-03-08T12:03:17;99841.03;;;7.85;78.71
163;BME280;3946;48.958;8.284;2024-03-08T12:06:05;99838.53;;;8.12;78.86
163;BME280;3946;48.958;8.284;2024-03-08T12:08:52;99842.75;;;8.27;78.74
163;BME280;3946;48.958;8.284;2024-03-08T12:11:38;99835.19;;;8.24;78.18
163;BME280;3946;48.958;8.284;2024-03-08T12:14:24;99831.72;;;8.11;78.01
163;BME280;3946;48.958;8.284;2024-03-08T12:17:11;99808.94;;;8.17;78.13
163;BME280;3946;48.958;8.284;2024-03-08T12:20:11;99824.22;;;8.34;78.31
163;BME280;3946;48.958;8.284;2024-03-08T12:22:59;99805.34;;;8.20;77.08
163;BME280;3946;48.958;8.284;2024-03-08T12:25:46;99819.53;;;8.27;78.22
163;BME280;3946;48.958;8.284;2024-03-08T12:28:34;99808.25;;;8.69;77.74
163;BME280;3946;48.958;8.284;2024-03-08T12:31:20;99804.94;;;8.67;77.31
163;BME280;3946;48.958;8.284;2024-03-08T12:34:06;99805.09;;;8.91;76.69
163;BME280;3946;48.958;8.284;2024-03-08T12:36:54;99802.16;;;8.70;76.53
163;BME280;3946;48.958;8.284;2024-03-08T12:39:44;99799.88;;;8.78;75.91
163;BME280;3946;48.958;8.284;2024-03-08T12:42:29;99789.25;;;8.70;76.37
163;BME280;3946;48.958;8.284;2024-03-08T12:45:15;99782.97;;;8.87;75.85
163;BME280;3946;48.958;8.284;2024-03-08T12:48:00;99781.50;;;8.70;76.02
163;BME280;3946;48.958;8.284;2024-03-08T12:50:47;99775.88;;;8.63;75.99
163;BME280;3946;48.958;8.284;2024-03-08T12:53:38;99771.66;;;8.62;77.20
163;BME280;3946;48.958;8.284;2024-03-08T12:56:30;99770.44;;;8.68;76.25
163;BME280;3946;48.958;8.284;2024-03-08T12:59:17;99762.25;;;8.61;76.08
163;BME280;3946;48.958;8.284;2024-03-08T13:02:03;99749.22;;;8.63;76.71
163;BME280;3946;48.958;8.284;2024-03-08T13:04:49;99749.00;;;8.93;75.45
163;BME280;3946;48.958;8.284;2024-03-08T13:07:41;99718.50;;;8.85;75.37
163;BME280;3946;48.958;8.284;2024-03-08T13:10:29;99732.75;;;9.03;75.15
163;BME280;3946;48.958;8.284;2024-03-08T13:13:16;99722.75;;;9.24;75.16
163;BME280;3946;48.958;8.284;2024-03-08T13:16:02;99729.97;;;9.19;74.17
163;BME280;3946;48.958;8.284;2024-03-08T13:18:51;99721.41;;;9.06;73.88
163;BME280;3946;48.958;8.284;2024-03-08T13:21:37;99708.06;;;9.25;74.93
163;BME280;3946;48.958;8.284;2024-03-08T13:24:22;99698.53;;;9.00;74.29
163;BME280;3946;48.958;8.284;2024-03-08T13:27:09;99701.66;;;9.05;74.44
163;BME280;3946;48.958;8.284;2024-03-08T13:30:06;99696.75;;;9.38;74.79
163;BME280;3946;48.958;8.284;2024-03-08T13:32:56;99677.25;;;9.22;73.76
163;BME280;3946;48.958;8.284;2024-03-08T13:35:42;99682.81;;;9.41;73.74
163;BME280;3946;48.958;8.284;2024-03-08T13:38:27;99655.22;;;9.16;74.47
163;BME280;3946;48.958;8.284;2024-03-08T13:41:13;99680.19;;;9.54;73.72
163;BME280;3946;48.958;8.284;2024-03-08T13:44:00;99675.16;;;9.39;73.83
163;BME280;3946;48.958;8.284;2024-03-08T13:46:49;99677.91;;;9.49;73.86
163;BME280;3946;48.958;8.284;2024-03-08T13:49:35;99673.03;;;9.44;73.31
163;BME280;3946;48.958;8.284;2024-03-08T13:52:21;99669.38;;;9.60;73.32
163;BME280;3946;48.958;8.284;2024-03-08T13:55:10;99665.97;;;10.07;72.72
163;BME280;3946;48.958;8.284;2024-03-08T13:57:56;99652.75;;;9.88;71.99
163;BME280;3946;48.958;8.284;2024-03-08T14:00:43;99658.25;;;9.83;72.89
163;BME280;3946;48.958;8.284;2024-03-08T14:03:31;99654.47;;;9.63;73.49
163;BME280;3946;48.958;8.284;2024-03-08T14:06:17;99642.94;;;9.80;73.52
163;BME280;3946;48.958;8.284;2024-03-08T14:09:03;99652.94;;;10.08;73.43
163;BME280;3946;48.958;8.284;2024-03-08T14:11:48;99639.03;;;10.22;73.52
163;BME280;3946;48.958;8.284;2024-03-08T14:14:34;99633.91;;;10.44;72.36
163;BME280;3946;48.958;8.284;2024-03-08T14:17:19;99622.44;;;10.25;72.75
163;BME280;3946;48.958;8.284;2024-03-08T14:20:07;99627.44;;;10.50;72.96
163;BME280;3946;48.958;8.284;2024-03-08T14:22:53;99623.41;;;10.35;72.15
163;BME280;3946;48.958;8.284;2024-03-08T14:25:39;99617.53;;;10.09;73.41
163;BME280;3946;48.958;8.284;2024-03-08T14:28:24;99610.34;;;10.01;73.29
163;BME280;3946;48.958;8.284;2024-03-08T14:31:11;99607.84;;;10.00;73.68
163;BME280;3946;48.958;8.284;2024-03-08T14:33:57;99584.44;;;9.90;73.10
163;BME280;3946;48.958;8.284;2024-03-08T14:36:44;99600.63;;;10.16;74.06
163;BME280;3946;48.958;8.284;2024-03-08T14:39:29;99590.97;;;10.18;73.99
163;BME280;3946;48.958;8.284;2024-03-08T14:42:15;99577.47;;;10.26;73.25
163;BME280;3946;48.958;8.284;2024-03-08T14:45:00;99583.69;;;10.23;74.10
163;BME280;3946;48.958;8.284;2024-03-08T14:47:46;99561.91;;;10.14;73.61
163;BME280;3946;48.958;8.284;2024-03-08T14:50:33;99565.72;;;10.22;73.58
163;BME280;3946;48.958;8.284;2024-03-08T14:53:22;99559.97;;;10.40;73.92
163;BME280;3946;48.958;8.284;2024-03-08T14:56:08;99552.53;;;10.25;73.08
163;BME280;3946;48.958;8.284;2024-03-08T14:58:53;99548.25;;;10.12;73.27
163;BME280;3946;48.958;8.284;2024-03-08T15:01:42;99547.81;;;10.19;73.39
163;BME280;3946;48.958;8.284;2024-03-08T15:04:28;99547.53;;;10.10;72.96
163;BME280;3946;48.958;8.284;2024-03-08T15:07:13;99541.19;;;10.14;72.72
163;BME280;3946;48.958;8.284;2024-03-08T15:10:00;99538.28;;;10.19;72.82
163;BME280;3946;48.958;8.284;2024-03-08T15:12:46;99539.69;;;10.23;73.60
163;BME280;3946;48.958;8.284;2024-03-08T15:15:32;99526.28;;;10.29;72.67
163;BME280;3946;48.958;8.284;2024-03-08T15:18:17;99519.94;;;10.33;73.16